Time;durP1;ratioP1;P1;durP2;ratioP2;P2;SDS_P1;SDS_P2;PMS_P1;PMS_P2;Temp;Humidity;BMP_temperature;BMP_pressure;BME280_temperature;BME280_humidity;BME280_pressure;Samples;Min_cycle;Max_cycle;Signal;HPM_P1;HPM_P2
2022/05/15 00:02:34;;;;;;;;;6.25;4.50;;;;;22.11;44.80;101421.19;5037775;28;45488;-82
2022/05/15 00:05:00;;;;;;;;;4.00;4.00;;;;;22.10;45.66;101413.25;5037067;28;46241;-78
2022/05/15 00:07:25;;;;;;;;;7.00;4.25;;;;;22.07;45.49;101410.63;5038036;28;45408;-83
2022/05/15 00:09:51;;;;;;;;;6.75;5.00;;;;;22.04;45.42;101407.94;5037477;28;45569;-81
2022/05/15 00:12:18;;;;;;;;;4.00;4.00;;;;;22.01;45.50;101407.91;5037741;28;45304;-82
2022/05/15 00:14:44;;;;;;;;;5.00;5.00;;;;;22.00;45.78;101403.50;5036998;28;45614;-83
2022/05/15 00:17:10;;;;;;;;;5.00;5.00;;;;;21.99;46.12;101396.47;5037233;28;45442;-83
2022/05/15 00:19:35;;;;;;;;;7.75;6.00;;;;;21.97;46.21;101390.31;5037618;28;45259;-82
2022/05/15 00:22:01;;;;;;;;;3.25;3.25;;;;;21.95;46.49;101393.84;5037224;28;45655;-78
2022/05/15 00:24:28;;;;;;;;;0.00;0.00;;;;;21.92;47.00;101388.53;5037795;28;46281;-82
2022/05/15 00:26:55;;;;;;;;;5.50;5.00;;;;;21.91;47.06;101380.63;5037027;28;45429;-81
2022/05/15 00:29:21;;;;;;;;;5.25;5.25;;;;;21.88;46.90;101378.81;5037080;28;45398;-82
2022/05/15 00:31:46;;;;;;;;;5.50;5.25;;;;;21.87;47.17;101384.97;5037645;28;45522;-82
2022/05/15 00:34:12;;;;;;;;;9.25;6.50;;;;;21.85;47.00;101378.81;5018846;28;48193;-78
2022/05/15 00:36:38;;;;;;;;;5.25;4.50;;;;;21.83;47.04;101377.94;5036940;28;45355;-79
2022/05/15 00:39:06;;;;;;;;;6.75;6.75;;;;;21.80;47.78;101370.00;5019108;28;45313;-80
2022/05/15 00:41:32;;;;;;;;;6.00;6.00;;;;;21.77;47.89;101373.50;5037381;28;45470;-77
2022/05/15 00:43:59;;;;;;;;;5.50;5.00;;;;;21.76;47.58;101377.00;5037006;28;46444;-77
2022/05/15 00:46:31;;;;;;;;;4.25;4.25;;;;;21.75;47.63;101377.00;5036904;28;45862;-79
2022/05/15 00:48:59;;;;;;;;;5.00;5.00;;;;;21.73;48.08;101370.81;5036933;28;45420;-79
2022/05/15 00:51:29;;;;;;;;;6.25;4.00;;;;;21.68;48.08;101369.88;5037732;28;45299;-80
2022/05/15 00:54:07;;;;;;;;;5.25;5.25;;;;;21.67;48.55;101373.41;5037304;28;47400;-79
2022/05/15 00:56:38;;;;;;;;;6.25;6.00;;;;;21.65;48.77;101362.84;5036551;28;45435;-80
2022/05/15 00:59:10;;;;;;;;;6.00;4.50;;;;;21.62;48.83;101358.44;5036136;28;45456;-80
2022/05/15 01:01:36;;;;;;;;;6.25;6.00;;;;;21.67;49.19;101354.94;5036860;28;45336;-80
2022/05/15 01:04:03;;;;;;;;;5.00;5.00;;;;;21.65;49.20;101349.69;5036407;28;45258;-79
2022/05/15 01:06:29;;;;;;;;;6.25;6.00;;;;;21.62;49.37;101349.66;5035611;28;45249;-79
2022/05/15 01:08:55;;;;;;;;;7.00;6.00;;;;;21.62;49.97;101349.66;5036796;28;45300;-79
2022/05/15 01:11:22;;;;;;;;;5.50;5.50;;;;;21.62;50.14;101357.56;5036788;28;45582;-80
2022/05/15 01:13:52;;;;;;;;;6.25;6.00;;;;;21.60;50.29;101351.38;5035815;28;45321;-79
2022/05/15 01:16:21;;;;;;;;;6.25;6.00;;;;;21.60;50.19;101359.28;5036231;28;45249;-79
2022/05/15 01:18:47;;;;;;;;;3.00;3.00;;;;;21.59;50.01;101352.28;5036219;28;45447;-79
2022/05/15 01:21:22;;;;;;;;;8.00;7.75;;;;;21.55;50.34;101360.97;5036491;28;45575;-80
2022/05/15 01:23:48;;;;;;;;;9.00;8.00;;;;;21.50;50.96;101356.53;5036228;28;45497;-79
2022/05/15 01:26:14;;;;;;;;;10.25;8.25;;;;;21.47;51.07;101345.09;5036021;28;45357;-80
2022/05/15 01:28:41;;;;;;;;;10.00;8.50;;;;;21.45;51.14;101350.38;5035935;28;45486;-79
2022/05/15 01:31:06;;;;;;;;;11.00;9.25;;;;;21.39;51.32;101352.06;5036509;28;45249;-79
2022/05/15 01:33:32;;;;;;;;;9.75;9.00;;;;;21.34;51.73;101355.53;5036162;28;46205;-79
2022/05/15 01:35:57;;;;;;;;;7.75;7.75;;;;;21.30;52.01;101347.59;5036419;28;45329;-80
2022/05/15 01:38:23;;;;;;;;;9.25;7.75;;;;;21.25;51.60;101344.06;5035973;28;45349;-80
2022/05/15 01:40:50;;;;;;;;;6.50;5.75;;;;;21.22;51.89;101342.25;5035902;28;45312;-80
2022/05/15 01:43:16;;;;;;;;;7.25;7.00;;;;;21.17;52.64;101336.06;5035890;28;45380;-80
2022/05/15 01:45:41;;;;;;;;;6.25;6.00;;;;;21.16;52.55;101342.22;5036247;28;45814;-81
2022/05/15 01:48:07;;;;;;;;;6.00;6.00;;;;;21.14;53.03;101336.03;5034365;28;45476;-80
2022/05/15 01:50:33;;;;;;;;;6.75;6.00;;;;;21.12;52.76;101336.03;5036481;28;45451;-80
2022/05/15 01:52:59;;;;;;;;;7.50;6.50;;;;;21.11;53.93;101341.28;5036319;28;45489;-79
2022/05/15 01:55:25;;;;;;;;;5.25;4.50;;;;;21.09;53.74;101329.84;5036215;28;45344;-78
2022/05/15 01:57:50;;;;;;;;;6.75;6.00;;;;;;;;5035533;28;45343;-79
2022/05/15 02:00:20;;;;;;;;;3.75;3.75;;;;;21.04;54.11;101332.44;5036219;28;45542;-79
2022/05/15 02:02:46;;;;;;;;;6.00;5.75;;;;;21.02;54.51;101324.50;5035491;28;45545;-79
2022/05/15 02:05:13;;;;;;;;;4.00;4.00;;;;;21.01;54.71;101316.63;5035192;28;45441;-78
2022/05/15 02:07:39;;;;;;;;;6.00;5.00;;;;;21.03;54.74;101314.88;5036032;28;45396;-79
2022/05/15 02:10:05;;;;;;;;;5.25;4.50;;;;;21.03;55.17;101310.50;5038911;28;45602;-79
2022/05/15 02:12:31;;;;;;;;;4.75;4.75;;;;;21.07;54.99;101310.53;5039440;28;46703;-78
2022/05/15 02:14:57;;;;;;;;;7.25;4.00;;;;;21.09;54.42;101306.16;5021635;28;45397;-78
2022/05/15 02:17:23;;;;;;;;;7.25;5.00;;;;;;;;5038733;28;45467;-79
2022/05/15 02:19:49;;;;;;;;;4.00;4.00;;;;;21.07;55.24;101297.38;5039671;28;45526;-78
2022/05/15 02:22:15;;;;;;;;;4.75;4.00;;;;;21.07;54.77;101294.72;5039015;28;46074;-79
2022/05/15 02:24:40;;;;;;;;;6.00;5.50;;;;;21.09;55.01;101293.88;5038743;28;45426;-78
2022/05/15 02:27:07;;;;;;;;;5.25;5.00;;;;;21.07;54.66;101284.19;5039124;28;45250;-79
2022/05/15 02:29:32;;;;;;;;;5.00;5.00;;;;;21.07;55.41;101287.69;5039033;28;45582;-78
2022/05/15 02:31:58;;;;;;;;;4.75;4.00;;;;;21.05;55.00;101291.19;5039259;28;46076;-77
2022/05/15 02:34:24;;;;;;;;;4.00;4.00;;;;;21.04;55.09;101285.06;5038808;28;45395;-79
2022/05/15 02:36:49;;;;;;;;;3.75;3.00;;;;;21.04;55.97;101292.97;5038851;28;45438;-77
2022/05/15 02:39:15;;;;;;;;;5.50;4.00;;;;;21.00;55.67;101299.91;5038283;28;45829;-78
2022/05/15 02:41:41;;;;;;;;;5.25;5.00;;;;;21.00;55.59;101301.69;5038811;28;45979;-78
2022/05/15 02:44:07;;;;;;;;;5.25;5.25;;;;;20.99;55.87;101302.56;5038718;28;45364;-78
2022/05/15 02:46:32;;;;;;;;;4.75;4.00;;;;;20.98;55.59;101312.22;5039070;28;45657;-77
2022/05/15 02:51:42;;;;;;;;;5.75;4.75;;;;;20.93;56.38;101313.03;5038706;28;45895;-78
2022/05/15 02:54:07;;;;;;;;;4.00;4.00;;;;;20.91;55.86;101302.47;5038602;28;45209;-78
2022/05/15 02:56:36;;;;;;;;;5.00;5.00;;;;;20.87;55.64;101309.47;5038772;28;45174;-77
2022/05/15 02:59:01;;;;;;;;;4.75;4.75;;;;;20.86;56.43;101314.72;5038020;28;45581;-77
2022/05/15 03:01:27;;;;;;;;;6.75;4.50;;;;;20.86;56.24;101317.34;5038541;28;45543;-79
2022/05/15 03:03:52;;;;;;;;;5.75;5.00;;;;;20.85;56.76;101305.91;5038555;28;45362;-79
2022/05/15 03:06:19;;;;;;;;;6.75;5.00;;;;;20.85;56.73;101300.66;5038391;28;45485;-80
2022/05/15 03:08:47;;;;;;;;;6.25;4.75;;;;;20.85;56.56;101298.03;5038591;28;45582;-79
2022/05/15 03:11:13;;;;;;;;;6.00;5.25;;;;;20.84;56.63;101300.66;5037738;28;46066;-80
2022/05/15 03:13:41;;;;;;;;;5.75;4.25;;;;;20.84;56.85;101295.38;5038412;28;45253;-80
2022/05/15 03:16:08;;;;;;;;;5.50;5.25;;;;;20.82;56.82;101291.84;5037553;28;45557;-80
2022/05/15 03:18:47;;;;;;;;;5.00;4.75;;;;;20.83;56.04;101280.47;5020276;28;45435;-80
2022/05/15 03:21:28;;;;;;;;;7.75;6.75;;;;;20.81;56.03;101285.72;5037807;28;46404;-80
2022/05/15 03:23:59;;;;;;;;;5.00;5.00;;;;;20.76;56.61;101283.91;5038210;28;45458;-80
2022/05/15 03:26:25;;;;;;;;;4.75;3.75;;;;;20.68;56.64;101276.75;5038166;28;45807;-80
2022/05/15 03:28:51;;;;;;;;;3.00;3.00;;;;;20.65;56.76;101274.13;5038192;28;45347;-80
2022/05/15 03:31:17;;;;;;;;;4.25;3.00;;;;;20.60;56.74;101272.31;5037743;28;45431;-80
2022/05/15 03:33:43;;;;;;;;;5.25;4.00;;;;;20.54;56.35;101266.09;5019725;28;45397;-80
2022/05/15 03:36:11;;;;;;;;;4.25;4.25;;;;;20.53;56.47;101266.09;5037810;28;45383;-80
2022/05/15 03:38:42;;;;;;;;;5.00;4.00;;;;;20.46;56.55;101264.28;5038060;28;45479;-79
2022/05/15 03:41:08;;;;;;;;;3.75;3.00;;;;;20.44;56.38;101263.38;5037672;28;45431;-79
2022/05/15 03:43:35;;;;;;;;;6.00;4.50;;;;;20.43;57.04;101267.72;5037800;28;45388;-80
2022/05/15 03:46:01;;;;;;;;;5.25;4.25;;;;;20.41;56.73;101265.09;5037666;28;45458;-80
2022/05/15 03:48:27;;;;;;;;;2.75;2.75;;;;;20.44;57.15;101258.09;5038081;28;45230;-80
2022/05/15 03:50:53;;;;;;;;;3.00;3.00;;;;;20.44;56.35;101266.88;5037725;28;45365;-79
2022/05/15 03:53:18;;;;;;;;;3.00;3.00;;;;;20.42;57.03;101260.69;5037657;28;45704;-80
2022/05/15 03:55:44;;;;;;;;;4.50;4.50;;;;;20.38;57.35;101254.53;5037962;28;45214;-80
2022/05/15 03:58:10;;;;;;;;;5.50;4.00;;;;;20.37;56.86;101260.66;5036598;28;45364;-80
2022/05/15 04:00:35;;;;;;;;;5.25;3.00;;;;;20.35;57.74;101251.88;5037621;28;46328;-80
2022/05/15 04:03:01;;;;;;;;;3.75;3.75;;;;;20.37;57.16;101252.75;5037425;28;45322;-79
2022/05/15 04:05:27;;;;;;;;;5.50;3.50;;;;;20.34;57.00;101255.38;5037708;28;45485;-79
2022/05/15 04:07:54;;;;;;;;;4.00;4.00;;;;;20.34;57.61;101249.22;5036570;28;45565;-79
2022/05/15 04:10:22;;;;;;;;;5.00;5.00;;;;;20.34;57.11;101247.50;5018843;28;46937;-80
2022/05/15 04:12:48;;;;;;;;;3.25;3.25;;;;;20.32;56.90;101246.59;5037491;28;45759;-80
2022/05/15 04:15:14;;;;;;;;;4.00;3.00;;;;;20.29;57.02;101257.06;5037135;28;45329;-79
2022/05/15 04:17:45;;;;;;;;;3.00;3.00;;;;;20.28;57.92;101254.41;5037322;28;45213;-79
2022/05/15 04:20:13;;;;;;;;;3.50;3.50;;;;;20.28;56.69;101257.91;5036910;28;45267;-79
2022/05/15 04:22:39;;;;;;;;;5.00;5.00;;;;;20.27;57.62;101250.88;5037201;28;45961;-80
2022/05/15 04:25:05;;;;;;;;;5.00;5.00;;;;;20.25;57.10;101252.63;5037236;28;45726;-80
2022/05/15 04:27:30;;;;;;;;;4.75;4.75;;;;;20.26;57.24;101257.91;5037223;28;45436;-77
2022/05/15 04:29:56;;;;;;;;;9.00;7.25;;;;;20.28;57.64;101254.41;5037356;28;45266;-80
2022/05/15 04:32:22;;;;;;;;;3.00;3.00;;;;;20.29;57.74;101249.16;5036259;28;45365;-80
2022/05/15 04:34:48;;;;;;;;;4.75;4.75;;;;;20.26;57.93;101250.03;5036959;28;45423;-80
2022/05/15 04:37:13;;;;;;;;;5.75;5.75;;;;;20.25;57.18;101245.63;5036772;28;46855;-80
2022/05/15 04:39:39;;;;;;;;;7.50;4.00;;;;;20.25;57.49;101239.47;5036875;28;46407;-80
2022/05/15 04:42:05;;;;;;;;;4.00;4.00;;;;;20.25;57.61;101236.84;5036757;28;45414;-80
2022/05/15 04:44:31;;;;;;;;;6.75;3.75;;;;;20.24;58.37;101243.84;5018858;28;45396;-80
2022/05/15 04:46:57;;;;;;;;;6.75;5.00;;;;;20.24;57.82;101245.63;5037150;28;45264;-79
2022/05/15 04:49:22;;;;;;;;;6.00;5.00;;;;;20.19;58.48;101244.66;5036457;28;46016;-80
2022/05/15 04:51:48;;;;;;;;;9.50;6.00;;;;;20.20;57.95;101249.06;5036736;28;45229;-80
2022/05/15 04:54:13;;;;;;;;;5.50;5.50;;;;;20.16;57.97;101255.13;5018858;28;45301;-80
2022/05/15 04:56:39;;;;;;;;;7.25;6.50;;;;;20.14;58.84;101256.88;5036994;28;45831;-80
2022/05/15 04:59:05;;;;;;;;;4.50;4.25;;;;;20.10;57.73;101256.84;5036000;28;45863;-79
2022/05/15 05:01:31;;;;;;;;;4.50;4.25;;;;;20.06;58.04;101260.28;5036668;28;45293;-78
2022/05/15 05:03:58;;;;;;;;;1.00;1.00;;;;;20.03;57.80;101257.59;5036826;28;45469;-78
2022/05/15 05:06:25;;;;;;;;;5.00;5.00;;;;;20.01;57.97;101256.72;5036730;28;45610;-78
2022/05/15 05:08:50;;;;;;;;;5.75;5.00;;;;;19.99;58.75;101260.19;5036330;28;46270;-78
2022/05/15 05:11:16;;;;;;;;;5.00;5.00;;;;;19.99;58.81;101257.56;5038306;28;45336;-78
2022/05/15 05:13:42;;;;;;;;;6.00;6.00;;;;;19.97;58.59;101257.53;5036274;28;45261;-76
2022/05/15 05:16:08;;;;;;;;;7.00;6.00;;;;;19.94;58.88;101262.75;5036410;28;45241;-78
2022/05/15 05:18:33;;;;;;;;;5.75;5.50;;;;;19.88;59.25;101260.91;5036111;28;46276;-76
2022/05/15 05:20:59;;;;;;;;;4.75;4.75;;;;;19.91;59.23;101267.97;5036762;28;45420;-77
2022/05/15 05:23:25;;;;;;;;;7.00;5.50;;;;;19.89;59.06;101259.19;5035893;28;45740;-77
2022/05/15 05:25:50;;;;;;;;;7.50;6.50;;;;;19.84;59.18;101259.09;5036437;28;45336;-78
2022/05/15 05:28:18;;;;;;;;;4.00;4.00;;;;;19.83;59.72;101267.84;5035397;28;45754;-78
2022/05/15 05:30:44;;;;;;;;;7.00;6.00;;;;;19.85;59.30;101265.22;5036194;28;45390;-76
2022/05/15 05:33:10;;;;;;;;;5.25;4.00;;;;;19.85;59.30;101263.50;5035852;28;45474;-76
2022/05/15 05:35:37;;;;;;;;;5.00;5.00;;;;;19.91;59.33;101265.34;5036436;28;45525;-76
2022/05/15 05:38:03;;;;;;;;;8.00;7.00;;;;;19.97;59.74;101267.19;5035405;28;45181;-76
2022/05/15 05:40:29;;;;;;;;;6.50;5.50;;;;;19.94;58.55;101261.03;5036266;28;45332;-76
2022/05/15 05:42:55;;;;;;;;;10.00;8.00;;;;;19.98;59.72;101267.19;5035528;28;45543;-76
2022/05/15 05:45:20;;;;;;;;;11.25;9.00;;;;;20.02;59.34;101253.25;5038490;28;45284;-76
2022/05/15 05:47:49;;;;;;;;;7.50;6.75;;;;;20.03;59.30;101259.38;5034485;28;46036;-76
2022/05/15 05:50:17;;;;;;;;;5.00;4.00;;;;;20.05;58.55;101262.91;5015845;28;45785;-76
2022/05/15 05:52:42;;;;;;;;;9.25;7.00;;;;;20.09;58.79;101260.34;5016064;28;45402;-76
2022/05/15 05:55:13;;;;;;;;;8.75;7.50;;;;;20.12;59.20;101246.34;5015976;28;45226;-76
2022/05/15 05:57:40;;;;;;;;;6.50;5.75;;;;;20.14;58.61;101255.13;5018635;28;45413;-76
2022/05/15 06:00:08;;;;;;;;;7.00;7.00;;;;;20.21;59.44;101251.69;5034630;28;45700;-76
2022/05/15 06:02:33;;;;;;;;;4.50;4.50;;;;;20.29;58.63;101262.31;5035874;28;45386;-76
2022/05/15 06:04:59;;;;;;;;;8.50;6.50;;;;;20.29;58.53;101259.69;5035763;28;45341;-76
2022/05/15 06:07:26;;;;;;;;;5.75;5.75;;;;;20.34;58.58;101262.38;5044479;28;46840;-76
2022/05/15 06:09:52;;;;;;;;;5.25;5.25;;;;;20.38;58.95;101259.78;5036586;28;45389;-75
2022/05/15 06:12:21;;;;;;;;;6.00;6.00;;;;;20.41;58.62;101266.81;5031461;28;45653;-76
2022/05/15 06:14:47;;;;;;;;;43.50;34.00;;;;;20.46;58.80;101269.53;5029364;28;45454;-76
2022/05/15 06:17:13;;;;;;;;;8.00;7.00;;;;;20.50;58.39;101263.44;5032788;28;45628;-79
2022/05/15 06:19:40;;;;;;;;;11.00;8.50;;;;;20.54;58.25;101260.84;5032852;28;45360;-77
2022/05/15 06:22:06;;;;;;;;;9.75;8.75;;;;;20.59;58.72;101266.16;5033421;28;45502;-77
2022/05/15 06:24:32;;;;;;;;;8.25;7.75;;;;;20.64;58.21;101251.31;5035016;28;45442;-77
2022/05/15 06:26:59;;;;;;;;;6.00;6.00;;;;;20.65;57.92;101254.81;5035721;28;45404;-83
2022/05/15 06:29:26;;;;;;;;;7.75;6.75;;;;;20.65;58.37;101247.81;5035759;28;45848;-83
2022/05/15 06:31:52;;;;;;;;;7.00;6.00;;;;;20.65;58.47;101255.72;5037553;28;45447;-80
2022/05/15 06:34:17;;;;;;;;;8.50;7.00;;;;;20.68;58.15;101255.72;5034952;28;45565;-80
2022/05/15 06:36:44;;;;;;;;;5.25;4.25;;;;;20.71;58.19;101252.25;5035145;28;46463;-82
2022/05/15 06:39:10;;;;;;;;;5.50;5.00;;;;;20.70;58.25;101261.00;5035398;28;45352;-83
2022/05/15 06:41:37;;;;;;;;;5.25;5.00;;;;;20.68;58.19;101258.34;5036316;28;45265;-81
2022/05/15 06:44:03;;;;;;;;;8.00;7.50;;;;;20.67;58.58;101248.72;5034648;28;45799;-77
2022/05/15 06:46:29;;;;;;;;;4.00;4.00;;;;;20.71;58.03;101260.16;5034855;28;45272;-77
2022/05/15 06:48:55;;;;;;;;;6.00;6.00;;;;;20.72;58.28;101257.53;5035279;28;45340;-78
2022/05/15 06:51:20;;;;;;;;;11.50;6.75;;;;;20.80;57.63;101264.63;5034995;28;45337;-80
2022/05/15 06:53:47;;;;;;;;;7.50;5.50;;;;;20.85;57.36;101262.94;5035583;28;45465;-79
2022/05/15 06:58:58;;;;;;;;;6.50;5.00;;;;;20.93;57.73;101263.88;5038819;28;45432;-83
2022/05/15 07:01:24;;;;;;;;;5.50;5.50;;;;;20.97;57.63;101251.63;5023442;28;45486;-80
2022/05/15 07:03:49;;;;;;;;;6.00;6.00;;;;;21.03;57.67;101244.69;5045685;28;45619;-79
2022/05/15 07:06:15;;;;;;;;;8.00;5.50;;;;;21.08;57.25;101239.44;5037259;28;45340;-78
2022/05/15 07:08:42;;;;;;;;;9.00;8.00;;;;;21.15;56.91;101230.75;5038161;28;45245;-79
2022/05/15 07:11:09;;;;;;;;;6.25;6.00;;;;;21.17;56.93;101233.38;5038243;28;45405;-82
2022/05/15 07:13:35;;;;;;;;;9.00;8.00;;;;;21.20;57.44;101228.16;5038437;28;45398;-78
2022/05/15 07:16:01;;;;;;;;;10.00;7.00;;;;;21.23;56.97;101224.66;5037383;28;45376;-77
2022/05/15 07:18:27;;;;;;;;;8.00;6.25;;;;;21.25;56.79;101215.88;5028548;28;45344;-77
2022/05/15 07:20:52;;;;;;;;;9.75;8.25;;;;;21.28;57.26;101222.91;5028083;28;45495;-76
2022/05/15 07:23:20;;;;;;;;;6.25;6.25;;;;;21.30;57.34;101215.91;5034807;28;45421;-76
2022/05/15 07:25:47;;;;;;;;;7.00;5.25;;;;;21.32;57.12;101215.06;5037556;28;45381;-77
2022/05/15 07:28:13;;;;;;;;;6.25;6.00;;;;;21.34;57.35;101208.03;5035396;28;45827;-77
2022/05/15 07:30:39;;;;;;;;;6.75;5.25;;;;;21.37;56.90;101201.03;5012536;28;45345;-78
2022/05/15 07:33:06;;;;;;;;;7.25;5.50;;;;;21.40;57.01;101201.94;5036716;28;45644;-82
2022/05/15 07:35:32;;;;;;;;;6.50;6.50;;;;;21.42;56.46;101196.69;5003266;28;47201;-81
2022/05/15 07:37:58;;;;;;;;;6.25;6.25;;;;;21.40;56.79;101209.81;5037141;28;45779;-80
2022/05/15 07:40:24;;;;;;;;;8.50;7.00;;;;;21.41;56.94;101208.97;5036566;28;45233;-81
2022/05/15 07:42:50;;;;;;;;;8.25;7.25;;;;;21.41;56.97;101211.59;5038454;28;45532;-83
2022/05/15 07:45:16;;;;;;;;;8.25;7.25;;;;;21.45;57.44;101204.59;5035678;28;45268;-84
2022/05/15 07:47:42;;;;;;;;;5.00;5.00;;;;;21.48;56.77;101208.16;5036357;28;45699;-80
2022/05/15 07:50:09;;;;;;;;;7.75;6.25;;;;;21.54;56.80;101203.75;5036719;28;45387;-77
2022/05/15 07:52:36;;;;;;;;;6.25;6.25;;;;;21.57;56.37;101207.28;5035922;28;45521;-78
2022/05/15 07:55:05;;;;;;;;;8.00;7.00;;;;;21.60;56.25;101199.44;5035813;28;45384;-77
2022/05/15 07:57:34;;;;;;;;;9.75;7.25;;;;;21.63;56.06;101188.94;5036764;28;45685;-77
2022/05/15 08:00:08;;;;;;;;;9.75;6.00;;;;;21.68;56.05;101181.06;5037054;28;45359;-80
2022/05/15 08:02:35;;;;;;;;;3.75;2.50;;;;;21.73;56.09;101188.97;5019072;28;45577;-79
2022/05/15 08:08:09;;;;;;;;;7.25;6.25;;;;;21.85;55.22;101188.13;5036111;28;45447;-77
2022/05/15 08:10:39;;;;;;;;;8.75;5.75;;;;;21.90;55.01;101171.47;5035482;28;45312;-77
2022/05/15 08:13:08;;;;;;;;;7.00;6.00;;;;;21.97;54.74;101174.13;5037151;28;45657;-78
2022/05/15 08:15:37;;;;;;;;;6.25;6.25;;;;;22.02;53.93;101157.47;5036537;28;46118;-79
2022/05/15 08:23:46;;;;;;;;;7.50;7.00;;;;;22.15;53.80;101142.53;5037063;28;45280;-76
2022/05/15 08:26:12;;;;;;;;;5.50;5.50;;;;;22.19;52.97;101135.50;5036214;28;46219;-77
2022/05/15 08:28:39;;;;;;;;;1.25;1.25;;;;;22.23;52.90;101143.41;5036489;28;45656;-76
2022/05/15 08:31:08;;;;;;;;;6.00;6.00;;;;;22.29;53.05;101133.78;5036481;28;45652;-77
2022/05/15 08:33:35;;;;;;;;;8.25;5.75;;;;;22.34;52.72;101129.38;5036152;28;45433;-76
2022/05/15 08:36:01;;;;;;;;;5.50;2.75;;;;;22.40;52.64;101132.03;5036147;28;45380;-77
2022/05/15 08:38:27;;;;;;;;;6.00;5.00;;;;;22.45;51.86;101122.38;5019424;28;45344;-77
2022/05/15 08:41:18;;;;;;;;;5.25;5.00;;;;;22.54;51.59;101124.16;5036446;28;45340;-76
2022/05/15 08:44:07;;;;;;;;;5.75;5.00;;;;;22.61;50.66;101122.41;5036461;28;45386;-77
2022/05/15 08:46:49;;;;;;;;;4.00;4.00;;;;;22.68;49.61;101119.72;5018488;28;46181;-81
2022/05/15 08:49:20;;;;;;;;;9.25;6.50;;;;;22.78;49.51;101117.09;5008587;28;45584;-81
2022/05/15 08:52:07;;;;;;;;;7.50;4.75;;;;;22.86;49.65;101112.69;5016827;28;45356;-79
2022/05/15 08:54:37;;;;;;;;;5.50;5.00;;;;;22.98;49.81;101117.06;5036514;28;45418;-77
2022/05/15 08:57:04;;;;;;;;;6.00;5.00;;;;;23.09;50.16;101114.41;5033512;28;45583;-77
2022/05/15 08:59:43;;;;;;;;;4.75;4.75;;;;;23.18;48.87;101107.31;5026499;28;45496;-79
2022/05/15 09:02:11;;;;;;;;;5.25;2.25;;;;;23.27;49.01;101102.97;5028564;28;45490;-82
2022/05/15 09:04:38;;;;;;;;;4.00;3.50;;;;;23.38;48.61;101109.06;5038538;28;45264;-79
2022/05/15 09:07:16;;;;;;;;;5.00;5.00;;;;;23.46;47.71;101104.63;5035646;28;46111;-79
2022/05/15 09:10:09;;;;;;;;;5.75;3.50;;;;;23.57;47.36;101104.56;5034706;28;45298;-83
2022/05/15 09:12:36;;;;;;;;;6.00;4.00;;;;;23.67;46.23;101104.53;5034921;28;45514;-81
2022/05/15 09:15:23;;;;;;;;;5.00;4.00;;;;;23.78;46.11;101103.59;5010960;28;45525;-79
2022/05/15 09:18:00;;;;;;;;;5.75;5.75;;;;;23.87;45.91;101109.72;5014368;28;45614;-80
2022/05/15 09:20:26;;;;;;;;;4.00;4.00;;;;;23.91;45.44;101095.59;4996095;28;45504;-80
2022/05/15 09:23:06;;;;;;;;;4.00;3.00;;;;;23.91;45.60;101093.81;4996043;28;45423;-81
2022/05/15 09:25:37;;;;;;;;;3.00;3.00;;;;;23.93;46.15;101085.88;4996898;28;45758;-80
2022/05/15 09:28:08;;;;;;;;;3.00;3.00;;;;;23.92;45.49;101086.75;5026362;28;45650;-80
2022/05/15 09:30:43;;;;;;;;;5.00;5.00;;;;;23.93;45.38;101085.88;5032472;28;45821;-80
2022/05/15 09:33:50;;;;;;;;;4.25;3.00;;;;;23.95;44.67;101089.44;5021707;28;45362;-80
2022/05/15 09:36:41;;;;;;;;;5.00;5.00;;;;;23.95;44.55;101087.69;5029843;28;45492;-78
2022/05/15 09:39:18;;;;;;;;;4.50;3.25;;;;;23.97;44.12;101076.22;5034320;28;46084;-77
2022/05/15 09:45:07;;;;;;;;;3.50;3.50;;;;;23.99;43.74;101067.38;5033929;28;45458;-80
2022/05/15 09:47:37;;;;;;;;;4.00;4.00;;;;;23.99;43.56;101070.00;5035886;28;45542;-80
2022/05/15 09:50:04;;;;;;;;;3.50;3.50;;;;;24.03;42.70;101076.16;5014395;28;47000;-78
2022/05/15 09:52:41;;;;;;;;;6.00;3.50;;;;;24.04;42.62;101073.50;5036173;28;45291;-79
2022/05/15 09:55:21;;;;;;;;;5.25;4.00;;;;;24.07;42.94;101070.84;5036579;28;45447;-85
2022/05/15 09:57:58;;;;;;;;;4.00;3.25;;;;;24.12;42.94;101062.88;5035513;28;45459;-79
2022/05/15 10:00:27;;;;;;;;;4.25;4.25;;;;;24.15;44.10;101061.94;5034322;28;45321;-78
2022/05/15 10:03:03;;;;;;;;;7.75;5.00;;;;;24.20;43.84;101052.22;5035024;28;45731;-77
2022/05/15 10:05:31;;;;;;;;;3.00;2.50;;;;;24.23;43.85;101041.63;5035032;28;45444;-78
2022/05/15 10:08:21;;;;;;;;;6.25;4.00;;;;;24.24;43.55;101043.38;5034970;28;45491;-79
2022/05/15 10:10:56;;;;;;;;;6.75;5.00;;;;;24.26;43.47;101042.47;5034353;28;46523;-80
2022/05/15 10:13:40;;;;;;;;;10.00;8.25;;;;;24.30;43.85;101042.47;5033627;28;45363;-82
2022/05/15 10:16:14;;;;;;;;;4.00;4.00;;;;;24.35;42.92;101032.69;5033829;28;45483;-84
2022/05/15 10:18:50;;;;;;;;;6.50;5.00;;;;;24.42;41.88;101032.63;5035142;28;45346;-81
2022/05/15 10:21:17;;;;;;;;;10.25;6.75;;;;;24.48;43.80;101038.75;5024669;28;45325;-80
2022/05/15 10:23:55;;;;;;;;;6.25;6.25;;;;;24.53;42.61;101031.66;5034815;28;45419;-80
2022/05/15 10:27:02;;;;;;;;;12.00;10.50;;;;;24.56;39.66;101024.56;5034775;28;45423;-80
2022/05/15 10:29:36;;;;;;;;;11.25;8.50;;;;;24.64;40.93;101024.47;5012442;28;45362;-80
2022/05/15 10:32:14;;;;;;;;;45.75;35.50;;;;;24.67;41.51;101016.50;5017830;28;45340;-79
2022/05/15 10:34:41;;;;;;;;;18.75;15.00;;;;;24.70;40.41;101013.84;5018732;28;45881;-85
2022/05/15 10:37:22;;;;;;;;;10.75;8.75;;;;;24.77;40.31;101011.16;5025049;28;45428;-79
2022/05/15 10:40:18;;;;;;;;;8.00;6.00;;;;;24.79;40.01;101006.69;5039216;28;45240;-81
2022/05/15 10:43:18;;;;;;;;;8.50;8.50;;;;;24.82;40.52;100998.72;5038101;28;45492;-80
2022/05/15 10:45:51;;;;;;;;;4.00;4.00;;;;;24.85;39.73;100999.56;5037838;28;45781;-78
2022/05/15 10:48:28;;;;;;;;;10.50;9.50;;;;;24.87;39.91;101004.84;5029196;28;45423;-80
2022/05/15 10:51:23;;;;;;;;;4.50;4.00;;;;;24.97;39.70;101002.94;5024044;28;45368;-83
2022/05/15 10:57:25;;;;;;;;;6.75;6.25;;;;;25.11;39.70;100993.06;5018634;28;45360;-82
2022/05/15 11:00:05;;;;;;;;;4.50;4.50;;;;;25.14;39.07;100990.38;5002745;28;45377;-90
2022/05/15 11:03:01;;;;;;;;;6.00;5.75;;;;;25.17;40.40;100992.97;5020050;28;45506;-83
2022/05/15 11:05:30;;;;;;;;;4.75;4.50;;;;;25.19;40.16;100987.69;5030463;28;46730;-87
2022/05/15 11:08:17;;;;;;;;;6.00;6.00;;;;;25.24;39.58;100990.25;5044415;28;45936;-78
2022/05/15 11:10:55;;;;;;;;;5.00;5.00;;;;;25.33;39.24;100984.84;5038757;28;45308;-80
2022/05/15 11:13:28;;;;;;;;;7.25;6.00;;;;;25.36;39.91;100987.44;5034373;28;45519;-83
2022/05/15 11:16:35;;;;;;;;;8.00;5.50;;;;;25.42;38.99;100976.78;5018407;28;45640;-83
2022/05/15 11:19:19;;;;;;;;;8.00;7.25;;;;;25.47;39.18;100967.00;5025990;28;45690;-84
2022/05/15 11:22:00;;;;;;;;;6.00;6.00;;;;;25.50;38.92;100971.38;5027734;28;45392;-84
2022/05/15 11:24:52;;;;;;;;;5.50;5.50;;;;;25.55;39.51;100977.47;5031611;28;45550;-84
2022/05/15 11:27:28;;;;;;;;;6.00;6.00;;;;;25.56;38.46;100970.41;5022407;28;45514;-83
2022/05/15 11:29:58;;;;;;;;;10.00;9.00;;;;;25.61;38.40;100968.53;5018406;28;45374;-81
2022/05/15 11:32:57;;;;;;;;;8.00;8.00;;;;;25.65;38.02;100964.97;5018182;28;45285;-79
2022/05/15 11:35:35;;;;;;;;;9.25;6.00;;;;;25.70;37.90;100964.88;5018074;28;45462;-79
2022/05/15 11:38:39;;;;;;;;;5.50;5.00;;;;;25.72;37.64;100960.44;5017857;28;46075;-80
2022/05/15 11:41:31;;;;;;;;;5.25;4.00;;;;;25.76;36.89;100957.72;4961119;28;45864;-78
2022/05/15 11:43:59;;;;;;;;;4.75;3.00;;;;;25.84;37.28;100946.97;5052115;28;45327;-78
2022/05/15 11:46:47;;;;;;;;;6.00;6.00;;;;;25.92;35.45;100944.16;5034858;28;45654;-78
2022/05/15 11:49:39;;;;;;;;;4.00;3.50;;;;;26.10;34.63;100943.00;5019472;28;46895;-83
2022/05/15 11:52:08;;;;;;;;;3.25;3.25;;;;;26.27;34.11;100945.38;5033973;28;45758;-86
2022/05/15 11:54:53;;;;;;;;;4.50;4.00;;;;;26.37;33.52;100951.38;5039437;28;45446;-85
2022/05/15 11:57:39;;;;;;;;;5.50;3.25;;;;;26.52;32.85;100944.91;5046433;28;45411;-83
2022/05/15 12:00:11;;;;;;;;;3.50;3.00;;;;;26.67;31.99;100949.03;5039870;28;45491;-85
2022/05/15 12:02:57;;;;;;;;;1.75;0.75;;;;;26.78;31.85;100948.88;5036856;28;45560;-84